Sebastian, FL

6:24 PM EST on February 01, 2015 (GMT -0500)
Vero Beach Municipal | Change Station
CLOSE
Current Station
Airport
Location: Vero Beach,
Elevation: 23 ft
Nearby Weather Stations

Elev 23 ft 27.66 °N, 80.42 °W | Updated 31 minutes ago

Clear
Clear
67 °F
Feels Like 67 °F
N
12
Wind Variable Wind from SE

Today
High -- | Low -- °F
--% Chance of Precip.
Yesterday
High -- | Low -- °F
Precip. -- in
7:08 AM 6:02 PM
Waxing Gibbous, 96% visible
Pressure 30.11 in
Visibility 10.0 miles
Clouds Clear
Dew Point 57 °F
Humidity 70%
Rainfall 0.00 in
Snow Depth Not available.
UV 0 out of 12
Pollen 9.70 out of 12
Air Quality Not available.
Flu Activity Not available.
METAR KVRB 012253Z 13010KT 10SM CLR 19/14 A3012 RMK AO2 SLP196 T01940139

More Conditions Fewer Conditions

Pressure 30.11 in
Visibility 10.0 miles
Clouds Clear
Dew Point 57 °F
Humidity 70%
Rainfall 0.00 in
Snow Depth Not available.
UV 0 out of 12
Pollen 9.70 out of 12
Air Quality Not available.
Flu Activity Not available.
METAR KVRB 012253Z 13010KT 10SM CLR 19/14 A3012 RMK AO2 SLP196 T01940139

More Conditions Fewer Conditions

10-Day Weather Forecast

Almanac

Astronomy

Feb. 01, 2015 Rise Set
Actual Time
Civil Twilight
Nautical Twilight
Astronomical Twilight
Moon
Length of Visible Light
Length of Day
Tomorrow will be .
, % of the Moon is Illuminated

Today's Extremes

State Highs State Lows

Community

WunderPhotos

Upload Photos

1,792,604 photos uploaded!

WunderBlogs® & News

Nearby

Air Quality

  Air Quality AQ Index Pollutant
Not available.

Snow Depth

Station Depth Elevation

Earthquake Activity

City Distance Mag. Time & Date
Minimum magnitude displayed is 2.5.

Coastal Water Temperatures

Place Temperature

Nearby Weather Stations